createdAt,value
2023-02-22T00:00:56.412Z,6.58
2023-02-22T00:03:26.988Z,6.71
2023-02-22T00:05:58.283Z,6.86
2023-02-22T00:08:30.527Z,7.04
2023-02-22T00:10:58.088Z,7.12
2023-02-22T00:13:24.972Z,7.11
2023-02-22T00:15:51.522Z,7.27
2023-02-22T00:18:19.384Z,7.20
2023-02-22T00:20:46.141Z,6.34
2023-02-22T00:23:19.040Z,6.48
2023-02-22T00:25:47.103Z,6.69
2023-02-22T00:28:15.221Z,6.30
2023-02-22T00:30:44.641Z,6.91
2023-02-22T00:33:13.843Z,7.03
2023-02-22T00:35:41.414Z,7.08
2023-02-22T00:38:08.426Z,7.26
2023-02-22T00:40:35.625Z,7.39
2023-02-22T00:43:05.047Z,7.31
2023-02-22T00:45:33.670Z,7.23
2023-02-22T00:48:01.108Z,7.20
2023-02-22T00:50:31.128Z,7.16
2023-02-22T00:52:59.561Z,7.16
2023-02-22T00:55:32.930Z,7.22
2023-02-22T00:57:59.960Z,7.36
2023-02-22T01:00:29.667Z,7.30
2023-02-22T01:02:56.978Z,7.30
2023-02-22T01:05:28.588Z,7.33
2023-02-22T01:07:57.139Z,7.10
2023-02-22T01:10:26.119Z,7.15
2023-02-22T01:12:54.517Z,7.16
2023-02-22T01:15:24.067Z,6.98
2023-02-22T01:17:53.660Z,7.42
2023-02-22T01:20:22.968Z,7.40
2023-02-22T01:22:51.524Z,7.49
2023-02-22T01:25:21.135Z,6.96
2023-02-22T01:27:48.200Z,7.04
2023-02-22T01:30:15.119Z,7.22
2023-02-22T01:32:43.184Z,7.18
2023-02-22T01:35:13.778Z,7.16
2023-02-22T01:37:41.536Z,7.35
2023-02-22T01:40:11.311Z,7.38
2023-02-22T01:42:37.849Z,7.49
2023-02-22T01:45:35.708Z,7.11
2023-02-22T01:48:06.419Z,7.08
2023-02-22T01:50:45.181Z,7.19
2023-02-22T01:53:16.890Z,6.51
2023-02-22T01:55:44.764Z,6.91
2023-02-22T01:58:12.633Z,6.77
2023-02-22T02:00:40.068Z,7.10
2023-02-22T02:03:12.193Z,7.11
2023-02-22T02:05:39.228Z,6.90
2023-02-22T02:08:21.604Z,6.18
2023-02-22T02:10:49.221Z,6.67
2023-02-22T02:13:16.349Z,6.27
2023-02-22T02:15:43.085Z,6.77
2023-02-22T02:18:12.195Z,5.93
2023-02-22T02:20:51.839Z,6.12
2023-02-22T02:24:05.878Z,6.20
2023-02-22T02:26:44.273Z,6.21
2023-02-22T02:29:49.428Z,6.08
2023-02-22T02:32:56.261Z,5.87
2023-02-22T02:36:02.339Z,6.09
2023-02-22T02:38:34.914Z,6.05
2023-02-22T02:41:15.308Z,6.14
2023-02-22T02:44:14.022Z,6.29
2023-02-22T02:46:50.281Z,6.27
2023-02-22T02:49:22.472Z,6.32
2023-02-22T02:51:52.830Z,6.03
2023-02-22T02:54:21.148Z,5.89
2023-02-22T02:56:48.339Z,5.91
2023-02-22T02:59:29.370Z,5.99
2023-02-22T03:02:16.996Z,6.07
2023-02-22T03:04:54.197Z,6.06
2023-02-22T03:07:29.240Z,5.88
2023-02-22T03:10:21.370Z,6.03
2023-02-22T03:13:24.653Z,5.64
2023-02-22T03:15:57.786Z,5.56
2023-02-22T03:18:49.159Z,5.75
2023-02-22T03:21:42.017Z,5.32
2023-02-22T03:24:20.845Z,5.64
2023-02-22T03:26:58.962Z,5.72
2023-02-22T03:29:29.988Z,5.46
2023-02-22T03:32:01.464Z,5.29
2023-02-22T03:34:35.669Z,5.69
2023-02-22T03:37:22.076Z,5.63
2023-02-22T03:39:54.173Z,5.80
2023-02-22T03:42:29.490Z,5.69
2023-02-22T03:45:00.253Z,6.03
2023-02-22T03:47:38.450Z,6.29
2023-02-22T03:50:07.913Z,6.43
2023-02-22T03:52:37.922Z,6.56
2023-02-22T03:55:11.168Z,6.75
2023-02-22T03:57:39.108Z,6.72
2023-02-22T04:00:09.147Z,6.49
2023-02-22T04:02:35.796Z,5.92
2023-02-22T04:05:02.449Z,6.16
2023-02-22T04:07:29.132Z,6.36
2023-02-22T04:09:55.727Z,6.46
2023-02-22T04:12:22.322Z,6.59
2023-02-22T04:14:48.896Z,6.57
2023-02-22T04:17:15.466Z,6.64
2023-02-22T04:19:42.076Z,6.33
2023-02-22T04:22:08.678Z,6.64
2023-02-22T04:24:35.277Z,6.71
2023-02-22T04:27:01.834Z,6.87
2023-02-22T04:29:28.471Z,6.77
2023-02-22T04:31:55.350Z,6.61
2023-02-22T04:34:21.934Z,6.68
2023-02-22T04:36:48.498Z,6.68
2023-02-22T04:39:15.179Z,6.71
2023-02-22T04:41:41.851Z,6.66
2023-02-22T04:44:08.832Z,6.52
2023-02-22T04:46:35.448Z,6.43
2023-02-22T04:49:02.351Z,6.02
2023-02-22T04:51:29.002Z,6.40
2023-02-22T04:53:56.355Z,6.04
2023-02-22T04:56:23.476Z,6.07
2023-02-22T04:58:50.254Z,6.17
2023-02-22T05:01:17.475Z,6.22
2023-02-22T05:03:44.237Z,6.14
2023-02-22T05:06:12.449Z,5.88
2023-02-22T05:08:40.206Z,6.13
2023-02-22T05:11:06.886Z,6.25
2023-02-22T05:13:33.489Z,6.05
2023-02-22T05:16:00.158Z,6.21
2023-02-22T05:18:26.749Z,6.27
2023-02-22T05:20:53.373Z,6.32
2023-02-22T05:23:19.928Z,5.91
2023-02-22T05:25:46.507Z,6.29
2023-02-22T05:28:15.046Z,6.24
2023-02-22T05:30:41.812Z,6.34
2023-02-22T05:33:09.695Z,6.41
2023-02-22T05:35:37.244Z,6.31
2023-02-22T05:38:04.669Z,6.44
2023-02-22T05:40:32.043Z,6.66
2023-02-22T05:42:59.372Z,6.28
2023-02-22T05:45:27.831Z,6.80
2023-02-22T05:47:55.131Z,6.44
2023-02-22T05:50:22.748Z,6.96
2023-02-22T05:52:49.476Z,4.93
2023-02-22T05:55:18.528Z,7.15
2023-02-22T05:57:45.143Z,7.28
2023-02-22T06:00:16.997Z,7.27
2023-02-22T06:02:43.552Z,7.25
2023-02-22T06:05:10.247Z,7.38
2023-02-22T06:07:36.838Z,7.68
2023-02-22T06:10:03.830Z,7.44
2023-02-22T06:12:30.680Z,7.29
2023-02-22T06:14:57.354Z,8.07
2023-02-22T06:17:23.907Z,7.94
2023-02-22T06:19:50.515Z,8.16
2023-02-22T06:22:19.445Z,8.38
2023-02-22T06:24:46.110Z,8.55
2023-02-22T06:27:12.975Z,8.84
2023-02-22T06:29:39.633Z,7.71
2023-02-22T06:32:06.255Z,9.03
2023-02-22T06:34:32.805Z,9.25
2023-02-22T06:37:00.701Z,9.49
2023-02-22T06:39:27.893Z,9.38
2023-02-22T06:41:56.449Z,9.40
2023-02-22T06:44:23.241Z,9.91
2023-02-22T06:46:51.270Z,10.14
2023-02-22T06:49:19.444Z,10.48
2023-02-22T06:51:47.160Z,10.91
2023-02-22T06:54:14.499Z,11.25
2023-02-22T06:56:41.148Z,11.36
2023-02-22T06:59:08.488Z,11.26
2023-02-22T07:01:35.409Z,12.06
2023-02-22T07:04:02.284Z,12.07
2023-02-22T07:06:29.101Z,12.12
2023-02-22T07:08:55.827Z,12.81
2023-02-22T07:11:22.389Z,12.92
2023-02-22T07:13:49.117Z,12.91
2023-02-22T07:16:15.854Z,12.71
2023-02-22T07:18:42.539Z,13.40
2023-02-22T07:21:09.315Z,13.23
2023-02-22T07:23:36.466Z,13.28
2023-02-22T07:26:05.407Z,13.52
2023-02-22T07:28:32.049Z,13.50
2023-02-22T07:30:58.982Z,13.90
2023-02-22T07:33:26.911Z,14.30
2023-02-22T07:35:53.668Z,14.65
2023-02-22T07:38:20.993Z,14.90
2023-02-22T07:40:47.832Z,15.25
2023-02-22T07:43:20.431Z,15.55
2023-02-22T07:45:48.705Z,15.72
2023-02-22T07:48:17.590Z,15.69
2023-02-22T07:50:44.977Z,15.84
2023-02-22T07:53:20.806Z,16.45
2023-02-22T07:55:51.014Z,16.60
2023-02-22T07:58:21.602Z,16.81
2023-02-22T08:00:51.123Z,16.67
2023-02-22T08:03:21.368Z,17.01
2023-02-22T08:05:56.365Z,16.87
2023-02-22T08:08:23.763Z,17.16
2023-02-22T08:10:51.135Z,17.44
2023-02-22T08:13:19.226Z,17.71
2023-02-22T08:15:47.286Z,17.66
2023-02-22T08:18:19.659Z,17.98
2023-02-22T08:20:48.374Z,18.18
2023-02-22T08:23:16.590Z,18.18
2023-02-22T08:25:44.624Z,18.08
2023-02-22T08:28:15.137Z,18.54
2023-02-22T08:30:44.969Z,18.32
2023-02-22T08:33:14.649Z,18.69
2023-02-22T08:35:41.825Z,18.90
2023-02-22T08:38:15.190Z,18.70
2023-02-22T08:40:41.788Z,19.13
2023-02-22T08:43:08.651Z,19.19
2023-02-22T08:45:35.250Z,19.28
2023-02-22T08:48:02.378Z,19.31
2023-02-22T08:50:33.576Z,19.71
2023-02-22T08:53:02.219Z,19.57
2023-02-22T08:55:35.159Z,19.06
2023-02-22T08:58:03.273Z,19.47
2023-02-22T09:00:33.290Z,19.43
2023-02-22T09:03:03.974Z,18.84
2023-02-22T09:05:31.685Z,19.28
2023-02-22T09:07:58.853Z,19.32
2023-02-22T09:10:29.384Z,19.19
2023-02-22T09:12:56.693Z,19.44
2023-02-22T09:15:25.752Z,19.40
2023-02-22T09:17:53.703Z,19.33
2023-02-22T09:20:22.222Z,19.41
2023-02-22T09:22:49.993Z,19.50
2023-02-22T09:25:18.318Z,19.29
2023-02-22T09:27:48.450Z,19.47
2023-02-22T09:30:35.044Z,19.48
2023-02-22T09:33:06.285Z,19.54
2023-02-22T09:35:36.395Z,19.69
2023-02-22T09:38:06.294Z,19.51
2023-02-22T09:40:41.006Z,19.68
2023-02-22T09:43:35.763Z,19.68
2023-02-22T09:46:28.595Z,19.76
2023-02-22T09:49:02.335Z,19.71
2023-02-22T09:51:35.859Z,19.73
2023-02-22T09:54:04.812Z,19.62
2023-02-22T09:56:33.983Z,19.69
2023-02-22T09:59:06.632Z,19.93
2023-02-22T10:01:36.611Z,19.99
2023-02-22T10:04:23.128Z,19.33
2023-02-22T10:07:16.113Z,19.95
2023-02-22T10:09:43.917Z,20.14
2023-02-22T10:12:23.179Z,20.18
2023-02-22T10:15:01.797Z,20.11
2023-02-22T10:17:29.652Z,20.33
2023-02-22T10:20:24.074Z,20.43
2023-02-22T10:23:14.208Z,20.63
2023-02-22T10:25:45.165Z,20.56
2023-02-22T10:28:26.780Z,20.35
2023-02-22T10:31:02.233Z,21.02
2023-02-22T10:33:43.769Z,20.83
2023-02-22T10:36:20.801Z,20.78
2023-02-22T10:39:07.819Z,20.96
2023-02-22T10:41:38.606Z,21.07
2023-02-22T10:44:05.224Z,21.07
2023-02-22T10:46:34.342Z,21.19
2023-02-22T10:49:07.455Z,21.28
2023-02-22T10:51:34.395Z,21.20
2023-02-22T10:54:10.052Z,21.12
2023-02-22T10:56:47.858Z,21.05
2023-02-22T10:59:32.950Z,20.95
2023-02-22T11:02:01.356Z,20.90
2023-02-22T11:04:28.149Z,21.00
2023-02-22T11:07:00.750Z,21.28
2023-02-22T11:09:29.048Z,21.42
2023-02-22T11:12:17.243Z,20.65
2023-02-22T11:14:43.808Z,21.09
2023-02-22T11:17:14.244Z,21.24
2023-02-22T11:19:47.623Z,21.10
2023-02-22T11:22:22.394Z,21.26
2023-02-22T11:24:57.648Z,21.38
2023-02-22T11:27:33.469Z,21.31
2023-02-22T11:30:26.753Z,21.37
2023-02-22T11:32:55.158Z,21.43
2023-02-22T11:35:27.896Z,21.59
2023-02-22T11:38:10.423Z,20.47
2023-02-22T11:40:37.010Z,21.38
2023-02-22T11:43:18.726Z,21.53
2023-02-22T11:46:02.494Z,21.28
2023-02-22T11:48:36.808Z,21.05
2023-02-22T11:51:14.609Z,21.13
2023-02-22T11:54:05.047Z,21.26
2023-02-22T11:56:40.153Z,21.01
2023-02-22T11:59:34.422Z,21.35
2023-02-22T12:02:25.639Z,21.23
2023-02-22T12:05:11.089Z,21.53
2023-02-22T12:08:10.709Z,21.56
2023-02-22T12:10:47.041Z,21.43
2023-02-22T12:13:36.827Z,21.45
2023-02-22T12:16:21.479Z,20.92
2023-02-22T12:18:48.034Z,21.35
2023-02-22T12:21:20.299Z,21.46
2023-02-22T12:24:07.468Z,21.57
2023-02-22T12:26:38.045Z,21.56
2023-02-22T12:29:30.947Z,21.61
2023-02-22T12:31:57.631Z,21.74
2023-02-22T12:34:29.923Z,21.97
2023-02-22T12:37:19.568Z,22.04
2023-02-22T12:40:09.317Z,21.81
2023-02-22T12:42:53.397Z,21.59
2023-02-22T12:45:31.869Z,21.40
2023-02-22T12:48:32.253Z,21.21
2023-02-22T12:51:07.270Z,20.73
2023-02-22T12:53:40.539Z,21.21
2023-02-22T12:56:26.703Z,21.13
2023-02-22T12:59:08.356Z,21.18
2023-02-22T13:01:40.287Z,21.17
2023-02-22T13:04:20.070Z,21.15
2023-02-22T13:07:02.468Z,20.89
2023-02-22T13:09:28.968Z,20.69
2023-02-22T13:12:07.760Z,20.92
2023-02-22T13:14:43.480Z,20.78
2023-02-22T13:17:21.184Z,20.25
2023-02-22T13:20:06.265Z,20.14
2023-02-22T13:22:41.608Z,20.23
2023-02-22T13:25:13.811Z,20.08
2023-02-22T13:27:43.799Z,20.13
2023-02-22T13:30:19.994Z,19.95
2023-02-22T13:33:03.120Z,20.34
2023-02-22T13:35:55.648Z,20.17
2023-02-22T13:38:47.146Z,19.48
2023-02-22T13:41:36.558Z,20.02
2023-02-22T13:44:17.746Z,19.80
2023-02-22T13:47:21.909Z,20.02
2023-02-22T13:50:16.388Z,19.72
2023-02-22T13:52:44.975Z,19.47
2023-02-22T13:55:41.980Z,19.54
2023-02-22T13:58:11.600Z,19.62
2023-02-22T14:00:58.037Z,19.79
2023-02-22T14:03:27.658Z,19.77
2023-02-22T14:05:57.256Z,19.37
2023-02-22T14:08:27.867Z,19.27
2023-02-22T14:10:59.311Z,19.42
2023-02-22T14:13:31.247Z,19.58
2023-02-22T14:15:57.882Z,19.20
2023-02-22T14:18:27.340Z,19.21
2023-02-22T14:21:20.383Z,19.15
2023-02-22T14:23:52.763Z,19.03
2023-02-22T14:26:31.262Z,16.97
2023-02-22T14:29:09.903Z,19.12
2023-02-22T14:31:46.613Z,19.12
2023-02-22T14:34:17.628Z,19.09
2023-02-22T14:37:08.721Z,18.91
2023-02-22T14:39:46.579Z,18.82
2023-02-22T14:42:30.202Z,18.73
2023-02-22T14:45:17.119Z,18.53
2023-02-22T14:48:01.241Z,18.46
2023-02-22T14:50:39.981Z,18.41
2023-02-22T14:53:12.745Z,18.48
2023-02-22T14:55:47.569Z,17.99
2023-02-22T14:58:22.582Z,17.95
2023-02-22T15:00:52.908Z,18.32
2023-02-22T15:03:37.401Z,18.28
2023-02-22T15:06:15.002Z,18.09
2023-02-22T15:08:48.687Z,17.79
2023-02-22T15:11:31.188Z,17.96
2023-02-22T15:13:59.779Z,17.87
2023-02-22T15:16:31.344Z,17.83
2023-02-22T15:19:00.516Z,17.86
2023-02-22T15:21:28.976Z,17.71
2023-02-22T15:23:56.749Z,17.11
2023-02-22T15:26:23.233Z,17.44
2023-02-22T15:28:55.450Z,17.45
2023-02-22T15:31:37.230Z,17.33
2023-02-22T15:34:12.653Z,17.06
2023-02-22T15:36:39.337Z,16.90
2023-02-22T15:39:08.913Z,16.72
2023-02-22T15:41:35.885Z,16.42
2023-02-22T15:44:17.758Z,16.78
2023-02-22T15:46:49.489Z,16.04
2023-02-22T15:49:16.041Z,16.51
2023-02-22T15:51:46.510Z,16.65
2023-02-22T15:54:26.907Z,16.36
2023-02-22T15:56:58.198Z,16.28
2023-02-22T15:59:30.543Z,16.30
2023-02-22T16:01:58.739Z,16.15
2023-02-22T16:04:28.815Z,16.18
2023-02-22T16:07:17.016Z,16.00
2023-02-22T16:09:49.961Z,15.65
2023-02-22T16:12:27.047Z,15.62
2023-02-22T16:14:54.010Z,15.76
2023-02-22T16:17:49.491Z,15.81
2023-02-22T16:20:24.871Z,15.75
2023-02-22T16:22:51.730Z,15.68
2023-02-22T16:25:18.289Z,15.61
2023-02-22T16:28:01.577Z,15.50
2023-02-22T16:30:39.495Z,15.38
2023-02-22T16:33:13.412Z,15.07
2023-02-22T16:35:40.325Z,15.26
2023-02-22T16:38:16.811Z,15.13
2023-02-22T16:41:01.618Z,14.72
2023-02-22T16:43:31.555Z,15.15
2023-02-22T16:45:58.900Z,15.12
2023-02-22T16:48:27.735Z,15.07
2023-02-22T16:50:59.580Z,15.05
2023-02-22T16:53:30.915Z,15.04
2023-02-22T16:56:02.780Z,14.68
2023-02-22T16:58:33.908Z,14.45
2023-02-22T17:01:00.531Z,14.74
2023-02-22T17:03:27.181Z,14.75
2023-02-22T17:05:53.933Z,14.65
2023-02-22T17:08:20.930Z,14.58
2023-02-22T17:10:51.529Z,14.12
2023-02-22T17:13:26.847Z,14.48
2023-02-22T17:15:57.153Z,14.44
2023-02-22T17:18:28.451Z,14.27
2023-02-22T17:20:55.669Z,13.82
2023-02-22T17:23:24.252Z,14.01
2023-02-22T17:25:53.687Z,14.04
2023-02-22T17:28:21.499Z,13.85
2023-02-22T17:30:49.119Z,13.79
2023-02-22T17:33:20.507Z,13.38
2023-02-22T17:35:48.130Z,13.72
2023-02-22T17:38:18.512Z,13.54
2023-02-22T17:40:48.168Z,13.26
2023-02-22T17:43:17.120Z,13.13
2023-02-22T17:45:43.936Z,13.43
2023-02-22T17:48:10.546Z,13.44
2023-02-22T17:50:39.208Z,13.18
2023-02-22T17:53:06.590Z,12.83
2023-02-22T17:55:37.874Z,13.21
2023-02-22T17:58:05.206Z,12.91
2023-02-22T18:00:35.755Z,13.06
2023-02-22T18:03:08.651Z,13.03
2023-02-22T18:05:47.284Z,13.03
2023-02-22T18:08:15.006Z,12.84
2023-02-22T18:10:42.904Z,12.78
2023-02-22T18:13:12.935Z,12.88
2023-02-22T18:15:40.539Z,12.50
2023-02-22T18:18:07.467Z,12.31
2023-02-22T18:20:40.175Z,12.73
2023-02-22T18:23:08.821Z,12.73
2023-02-22T18:25:36.861Z,12.55
2023-02-22T18:28:06.358Z,12.47
2023-02-22T18:30:35.893Z,12.55
2023-02-22T18:33:03.735Z,12.48
2023-02-22T18:35:31.074Z,12.43
2023-02-22T18:37:57.689Z,11.72
2023-02-22T18:40:24.282Z,12.01
2023-02-22T18:42:50.833Z,12.33
2023-02-22T18:45:18.147Z,12.07
2023-02-22T18:47:45.657Z,12.12
2023-02-22T18:50:13.343Z,11.34
2023-02-22T18:52:46.127Z,11.69
2023-02-22T18:55:19.034Z,11.60
2023-02-22T18:57:46.547Z,11.27
2023-02-22T19:00:19.604Z,10.79
2023-02-22T19:02:46.246Z,10.99
2023-02-22T19:05:17.337Z,11.05
2023-02-22T19:07:45.093Z,10.88
2023-02-22T19:10:11.724Z,10.88
2023-02-22T19:12:38.377Z,10.94
2023-02-22T19:15:05.234Z,10.87
2023-02-22T19:17:32.640Z,10.95
2023-02-22T19:19:59.295Z,10.94
2023-02-22T19:22:26.262Z,10.89
2023-02-22T19:24:56.354Z,10.67
2023-02-22T19:27:23.557Z,10.89
2023-02-22T19:29:50.365Z,10.44
2023-02-22T19:32:17.584Z,10.43
2023-02-22T19:34:44.666Z,10.16
2023-02-22T19:37:12.700Z,10.40
2023-02-22T19:39:39.358Z,10.40
2023-02-22T19:42:09.547Z,10.51
2023-02-22T19:44:36.532Z,10.43
2023-02-22T19:47:08.876Z,10.45
2023-02-22T19:49:37.430Z,10.30
2023-02-22T19:52:06.588Z,10.32
2023-02-22T19:54:33.816Z,9.54
2023-02-22T19:57:00.647Z,9.86
2023-02-22T19:59:27.873Z,9.17
2023-02-22T20:01:55.960Z,9.32
2023-02-22T20:04:23.386Z,9.89
2023-02-22T20:06:54.423Z,9.46
2023-02-22T20:09:24.013Z,9.61
2023-02-22T20:11:53.936Z,9.29
2023-02-22T20:14:24.962Z,9.64
2023-02-22T20:16:53.144Z,9.78
2023-02-22T20:19:21.085Z,9.84
2023-02-22T20:21:47.637Z,9.79
2023-02-22T20:24:23.662Z,9.60
2023-02-22T20:26:50.695Z,9.64
2023-02-22T20:29:17.622Z,9.37
2023-02-22T20:31:49.261Z,9.42
2023-02-22T20:34:16.027Z,9.51
2023-02-22T20:36:42.651Z,9.44
2023-02-22T20:39:13.498Z,9.31
2023-02-22T20:41:42.622Z,9.30
2023-02-22T20:44:12.184Z,9.21
2023-02-22T20:46:38.821Z,9.22
2023-02-22T20:49:08.363Z,9.18
2023-02-22T20:51:35.494Z,6.72
2023-02-22T20:54:03.004Z,9.23
2023-02-22T20:56:31.706Z,8.88
2023-02-22T20:59:01.511Z,9.14
2023-02-22T21:01:28.946Z,9.16
2023-02-22T21:04:00.560Z,8.76
2023-02-22T21:06:27.918Z,9.11
2023-02-22T21:08:57.249Z,8.97
2023-02-22T21:11:25.968Z,9.18
2023-02-22T21:13:53.018Z,8.78
2023-02-22T21:16:25.504Z,9.15
2023-02-22T21:18:54.128Z,9.15
2023-02-22T21:21:22.356Z,9.16
2023-02-22T21:23:51.628Z,9.20
2023-02-22T21:26:23.482Z,6.33
2023-02-22T21:28:51.855Z,9.10
2023-02-22T21:31:21.592Z,9.00
2023-02-22T21:33:50.617Z,8.64
2023-02-22T21:36:18.157Z,9.05
2023-02-22T21:38:47.117Z,8.98
2023-02-22T21:41:15.739Z,8.28
2023-02-22T21:43:44.042Z,8.88
2023-02-22T21:46:11.040Z,7.45
2023-02-22T21:48:48.425Z,8.44
2023-02-22T21:51:22.102Z,8.35
2023-02-22T21:53:52.412Z,8.25
2023-02-22T21:56:24.352Z,7.73
2023-02-22T21:58:59.193Z,8.14
2023-02-22T22:01:28.513Z,8.15
2023-02-22T22:03:59.493Z,7.67
2023-02-22T22:06:28.577Z,7.27
2023-02-22T22:08:55.981Z,7.81
2023-02-22T22:11:22.829Z,7.32
2023-02-22T22:13:49.600Z,7.83
2023-02-22T22:16:19.205Z,7.26
2023-02-22T22:18:46.918Z,7.67
2023-02-22T22:21:19.607Z,7.08
2023-02-22T22:23:47.615Z,7.69
2023-02-22T22:26:20.103Z,7.62
2023-02-22T22:28:54.411Z,6.55
2023-02-22T22:31:23.932Z,7.05
2023-02-22T22:33:50.899Z,7.24
2023-02-22T22:36:21.402Z,7.30
2023-02-22T22:38:49.009Z,6.92
2023-02-22T22:41:18.824Z,7.29
2023-02-22T22:43:46.542Z,7.23
2023-02-22T22:46:15.475Z,7.27
2023-02-22T22:48:42.492Z,7.17
2023-02-22T22:51:12.514Z,7.09
2023-02-22T22:53:41.889Z,6.54
2023-02-22T22:56:14.319Z,6.42
2023-02-22T22:58:43.960Z,6.80
2023-02-22T23:01:18.108Z,6.79
2023-02-22T23:03:55.310Z,6.82
2023-02-22T23:06:32.989Z,6.79
2023-02-22T23:09:38.970Z,6.46
2023-02-22T23:12:09.370Z,6.63
2023-02-22T23:14:44.008Z,6.65
2023-02-22T23:17:26.844Z,6.33
2023-02-22T23:19:53.483Z,6.57
2023-02-22T23:22:21.257Z,6.34
2023-02-22T23:24:48.022Z,6.41
2023-02-22T23:27:15.045Z,6.50
2023-02-22T23:29:42.666Z,6.54
2023-02-22T23:32:09.521Z,6.45
2023-02-22T23:34:38.644Z,5.87
2023-02-22T23:37:09.839Z,6.43
2023-02-22T23:39:36.460Z,6.06
2023-02-22T23:42:03.964Z,6.35
2023-02-22T23:44:30.695Z,6.14
2023-02-22T23:46:57.339Z,6.20
2023-02-22T23:49:27.042Z,6.35
2023-02-22T23:51:53.884Z,6.41
2023-02-22T23:54:24.483Z,6.50
2023-02-22T23:56:56.763Z,6.34
2023-02-22T23:59:26.009Z,6.36
